sensor_id;sensor_type;location;lat;lon;timestamp;pressure;altitude;pressure_sealevel;temperature;humidity
36600;BME280;35385;55.668;37.508;2023-03-13T00:00:23;97887.41;;;-4.74;100.00
36600;BME280;35385;55.668;37.508;2023-03-13T00:01:25;97888.25;;;-4.73;100.00
36600;BME280;35385;55.668;37.508;2023-03-13T00:02:25;97890.56;;;-4.67;100.00
36600;BME280;35385;55.668;37.508;2023-03-13T00:03:26;97889.84;;;-4.71;100.00
36600;BME280;35385;55.668;37.508;2023-03-13T00:04:26;97896.63;;;-4.67;100.00
36600;BME280;35385;55.668;37.508;2023-03-13T00:05:27;97896.22;;;-4.59;100.00
36600;BME280;35385;55.668;37.508;2023-03-13T00:06:28;97901.22;;;-4.54;100.00
36600;BME280;35385;55.668;37.508;2023-03-13T00:07:31;97902.84;;;-4.52;100.00
36600;BME280;35385;55.668;37.508;2023-03-13T00:08:31;97903.88;;;-4.56;100.00
36600;BME280;35385;55.668;37.508;2023-03-13T00:09:32;97908.34;;;-4.58;100.00
36600;BME280;35385;55.668;37.508;2023-03-13T00:10:32;97893.78;;;-4.62;100.00
36600;BME280;35385;55.668;37.508;2023-03-13T00:11:35;97903.50;;;-4.66;100.00
36600;BME280;35385;55.668;37.508;2023-03-13T00:12:36;97899.06;;;-4.64;100.00
36600;BME280;35385;55.668;37.508;2023-03-13T00:13:36;97889.50;;;-4.63;100.00
36600;BME280;35385;55.668;37.508;2023-03-13T00:14:37;97898.81;;;-4.59;100.00
36600;BME280;35385;55.668;37.508;2023-03-13T00:15:37;97908.25;;;-4.56;100.00
36600;BME280;35385;55.668;37.508;2023-03-13T00:16:38;97902.41;;;-4.62;100.00
36600;BME280;35385;55.668;37.508;2023-03-13T00:17:38;97902.13;;;-4.73;100.00
36600;BME280;35385;55.668;37.508;2023-03-13T00:18:43;97897.75;;;-4.72;100.00
36600;BME280;35385;55.668;37.508;2023-03-13T00:19:44;97908.72;;;-4.66;100.00
36600;BME280;35385;55.668;37.508;2023-03-13T00:20:44;97905.81;;;-4.59;100.00
36600;BME280;35385;55.668;37.508;2023-03-13T00:21:47;97916.00;;;-4.55;100.00
36600;BME280;35385;55.668;37.508;2023-03-13T00:22:48;97911.63;;;-4.54;100.00
36600;BME280;35385;55.668;37.508;2023-03-13T00:23:48;97928.81;;;-4.50;100.00
36600;BME280;35385;55.668;37.508;2023-03-13T00:24:49;97922.91;;;-4.54;100.00
36600;BME280;35385;55.668;37.508;2023-03-13T00:25:57;97927.19;;;-4.53;100.00
36600;BME280;35385;55.668;37.508;2023-03-13T00:26:57;97940.09;;;-4.50;100.00
36600;BME280;35385;55.668;37.508;2023-03-13T00:28:02;97935.41;;;-4.43;100.00
36600;BME280;35385;55.668;37.508;2023-03-13T00:29:02;97935.25;;;-4.40;100.00
36600;BME280;35385;55.668;37.508;2023-03-13T00:30:03;97930.88;;;-4.40;100.00
36600;BME280;35385;55.668;37.508;2023-03-13T00:31:11;97937.72;;;-4.37;100.00
36600;BME280;35385;55.668;37.508;2023-03-13T00:32:11;97936.38;;;-4.46;100.00
36600;BME280;35385;55.668;37.508;2023-03-13T00:33:12;97935.31;;;-4.42;100.00
36600;BME280;35385;55.668;37.508;2023-03-13T00:34:12;97930.03;;;-4.40;100.00
36600;BME280;35385;55.668;37.508;2023-03-13T00:35:13;97940.25;;;-4.36;100.00
36600;BME280;35385;55.668;37.508;2023-03-13T00:36:18;97945.59;;;-4.39;100.00
36600;BME280;35385;55.668;37.508;2023-03-13T00:37:18;97941.44;;;-4.60;100.00
36600;BME280;35385;55.668;37.508;2023-03-13T00:38:19;97948.41;;;-4.60;100.00
36600;BME280;35385;55.668;37.508;2023-03-13T00:39:19;97941.03;;;-4.70;100.00
36600;BME280;35385;55.668;37.508;2023-03-13T00:40:20;97950.56;;;-4.69;100.00
36600;BME280;35385;55.668;37.508;2023-03-13T00:41:22;97946.97;;;-4.66;100.00
36600;BME280;35385;55.668;37.508;2023-03-13T00:42:22;97947.25;;;-4.72;100.00
36600;BME280;35385;55.668;37.508;2023-03-13T00:43:23;97966.03;;;-4.66;100.00
36600;BME280;35385;55.668;37.508;2023-03-13T00:44:23;97951.63;;;-4.55;100.00
36600;BME280;35385;55.668;37.508;2023-03-13T00:45:24;97960.09;;;-4.50;100.00
36600;BME280;35385;55.668;37.508;2023-03-13T00:46:26;97968.25;;;-4.58;100.00
36600;BME280;35385;55.668;37.508;2023-03-13T00:47:27;97955.31;;;-4.59;100.00
36600;BME280;35385;55.668;37.508;2023-03-13T00:48:27;97963.63;;;-4.51;100.00
36600;BME280;35385;55.668;37.508;2023-03-13T00:49:28;97970.09;;;-4.60;100.00
36600;BME280;35385;55.668;37.508;2023-03-13T00:50:28;97964.34;;;-4.67;100.00
36600;BME280;35385;55.668;37.508;2023-03-13T00:51:29;97970.16;;;-4.62;100.00
36600;BME280;35385;55.668;37.508;2023-03-13T00:52:29;97969.34;;;-4.62;100.00
36600;BME280;35385;55.668;37.508;2023-03-13T00:53:30;97965.56;;;-4.74;100.00
36600;BME280;35385;55.668;37.508;2023-03-13T00:54:30;97964.34;;;-4.67;100.00
36600;BME280;35385;55.668;37.508;2023-03-13T00:55:31;97967.56;;;-4.62;100.00
36600;BME280;35385;55.668;37.508;2023-03-13T00:56:31;97968.50;;;-4.63;100.00
36600;BME280;35385;55.668;37.508;2023-03-13T00:57:31;97970.88;;;-4.58;100.00
36600;BME280;35385;55.668;37.508;2023-03-13T00:58:37;97968.81;;;-4.51;100.00
36600;BME280;35385;55.668;37.508;2023-03-13T00:59:37;97984.22;;;-4.64;100.00
36600;BME280;35385;55.668;37.508;2023-03-13T01:00:38;97977.53;;;-4.70;100.00
36600;BME280;35385;55.668;37.508;2023-03-13T01:01:38;97975.28;;;-4.77;100.00
36600;BME280;35385;55.668;37.508;2023-03-13T01:02:42;97985.34;;;-4.70;100.00
36600;BME280;35385;55.668;37.508;2023-03-13T01:03:43;97983.19;;;-4.79;100.00
36600;BME280;35385;55.668;37.508;2023-03-13T01:04:44;97988.22;;;-4.76;100.00
36600;BME280;35385;55.668;37.508;2023-03-13T01:05:53;97975.38;;;-4.79;100.00
36600;BME280;35385;55.668;37.508;2023-03-13T01:06:53;97985.47;;;-4.73;100.00
36600;BME280;35385;55.668;37.508;2023-03-13T01:07:54;97996.03;;;-4.76;100.00
36600;BME280;35385;55.668;37.508;2023-03-13T01:08:55;97990.16;;;-4.79;100.00
36600;BME280;35385;55.668;37.508;2023-03-13T01:09:55;98000.34;;;-4.75;100.00
36600;BME280;35385;55.668;37.508;2023-03-13T01:11:03;98008.31;;;-4.78;100.00
36600;BME280;35385;55.668;37.508;2023-03-13T01:12:04;98005.34;;;-4.89;100.00
36600;BME280;35385;55.668;37.508;2023-03-13T01:13:04;98008.84;;;-4.90;100.00
36600;BME280;35385;55.668;37.508;2023-03-13T01:14:06;98003.50;;;-4.87;100.00
36600;BME280;35385;55.668;37.508;2023-03-13T01:15:07;98013.41;;;-4.93;100.00
36600;BME280;35385;55.668;37.508;2023-03-13T01:16:12;98013.97;;;-5.06;100.00
36600;BME280;35385;55.668;37.508;2023-03-13T01:17:13;98016.06;;;-5.14;100.00
36600;BME280;35385;55.668;37.508;2023-03-13T01:18:13;98013.81;;;-5.21;100.00
36600;BME280;35385;55.668;37.508;2023-03-13T01:19:14;98022.59;;;-5.24;100.00
36600;BME280;35385;55.668;37.508;2023-03-13T01:20:15;98011.47;;;-5.27;100.00
36600;BME280;35385;55.668;37.508;2023-03-13T01:21:16;98018.50;;;-5.29;100.00
36600;BME280;35385;55.668;37.508;2023-03-13T01:22:18;98025.41;;;-5.28;100.00
36600;BME280;35385;55.668;37.508;2023-03-13T01:23:19;98029.94;;;-5.34;100.00
36600;BME280;35385;55.668;37.508;2023-03-13T01:24:19;98025.41;;;-5.28;100.00
36600;BME280;35385;55.668;37.508;2023-03-13T01:25:20;98030.53;;;-5.27;100.00
36600;BME280;35385;55.668;37.508;2023-03-13T01:26:20;98036.59;;;-5.26;100.00
36600;BME280;35385;55.668;37.508;2023-03-13T01:27:21;98035.88;;;-5.30;100.00
36600;BME280;35385;55.668;37.508;2023-03-13T01:28:21;98032.09;;;-5.23;100.00
36600;BME280;35385;55.668;37.508;2023-03-13T01:29:22;98039.56;;;-5.15;100.00
36600;BME280;35385;55.668;37.508;2023-03-13T01:30:23;98034.47;;;-5.18;100.00
36600;BME280;35385;55.668;37.508;2023-03-13T01:31:28;98039.00;;;-5.22;100.00
36600;BME280;35385;55.668;37.508;2023-03-13T01:32:31;98040.75;;;-5.22;100.00
36600;BME280;35385;55.668;37.508;2023-03-13T01:33:32;98041.66;;;-5.23;100.00
36600;BME280;35385;55.668;37.508;2023-03-13T01:34:32;98056.38;;;-5.22;100.00
36600;BME280;35385;55.668;37.508;2023-03-13T01:35:32;98049.53;;;-5.25;100.00
36600;BME280;35385;55.668;37.508;2023-03-13T01:36:34;98053.78;;;-5.22;100.00
36600;BME280;35385;55.668;37.508;2023-03-13T01:37:34;98058.84;;;-5.19;100.00
36600;BME280;35385;55.668;37.508;2023-03-13T01:38:36;98056.50;;;-5.25;100.00
36600;BME280;35385;55.668;37.508;2023-03-13T01:39:36;98064.31;;;-5.25;100.00
36600;BME280;35385;55.668;37.508;2023-03-13T01:40:44;98064.44;;;-5.28;100.00
36600;BME280;35385;55.668;37.508;2023-03-13T01:41:45;98066.91;;;-5.25;100.00
36600;BME280;35385;55.668;37.508;2023-03-13T01:42:55;98070.84;;;-5.17;100.00
36600;BME280;35385;55.668;37.508;2023-03-13T01:43:56;98068.59;;;-5.24;100.00
36600;BME280;35385;55.668;37.508;2023-03-13T01:44:57;98075.16;;;-5.16;100.00
36600;BME280;35385;55.668;37.508;2023-03-13T01:46:57;98067.63;;;-5.22;100.00
36600;BME280;35385;55.668;37.508;2023-03-13T01:47:58;98067.97;;;-5.29;100.00
36600;BME280;35385;55.668;37.508;2023-03-13T01:50:02;98074.00;;;-5.29;100.00
36600;BME280;35385;55.668;37.508;2023-03-13T01:51:05;98084.53;;;-5.32;100.00
36600;BME280;35385;55.668;37.508;2023-03-13T01:52:08;98082.78;;;-5.31;100.00
36600;BME280;35385;55.668;37.508;2023-03-13T01:53:09;98093.91;;;-5.28;100.00
36600;BME280;35385;55.668;37.508;2023-03-13T01:54:12;98084.41;;;-5.29;100.00
36600;BME280;35385;55.668;37.508;2023-03-13T01:55:13;98085.38;;;-5.31;100.00
36600;BME280;35385;55.668;37.508;2023-03-13T01:56:18;98092.56;;;-5.37;100.00
36600;BME280;35385;55.668;37.508;2023-03-13T01:57:20;98089.91;;;-5.35;100.00
36600;BME280;35385;55.668;37.508;2023-03-13T01:58:23;98092.56;;;-5.37;100.00
36600;BME280;35385;55.668;37.508;2023-03-13T01:59:25;98098.47;;;-5.33;100.00
36600;BME280;35385;55.668;37.508;2023-03-13T02:00:28;98097.50;;;-5.30;100.00
36600;BME280;35385;55.668;37.508;2023-03-13T02:01:32;98107.66;;;-5.24;100.00
36600;BME280;35385;55.668;37.508;2023-03-13T02:02:33;98111.03;;;-5.22;100.00
36600;BME280;35385;55.668;37.508;2023-03-13T02:03:35;98106.81;;;-5.25;100.00
36600;BME280;35385;55.668;37.508;2023-03-13T02:04:40;98106.81;;;-5.25;100.00
36600;BME280;35385;55.668;37.508;2023-03-13T02:05:42;98108.50;;;-5.24;100.00
36600;BME280;35385;55.668;37.508;2023-03-13T02:06:44;98110.31;;;-5.26;100.00
36600;BME280;35385;55.668;37.508;2023-03-13T02:07:47;98116.50;;;-5.28;100.00
36600;BME280;35385;55.668;37.508;2023-03-13T02:08:54;98120.00;;;-5.29;100.00
36600;BME280;35385;55.668;37.508;2023-03-13T02:09:55;98127.94;;;-5.32;100.00
36600;BME280;35385;55.668;37.508;2023-03-13T02:12:09;98120.34;;;-5.37;100.00
36600;BME280;35385;55.668;37.508;2023-03-13T02:13:10;98127.19;;;-5.35;100.00
36600;BME280;35385;55.668;37.508;2023-03-13T02:14:15;98126.19;;;-5.32;100.00
36600;BME280;35385;55.668;37.508;2023-03-13T02:15:17;98135.31;;;-5.22;100.00
36600;BME280;35385;55.668;37.508;2023-03-13T02:16:18;98130.97;;;-5.21;100.00
36600;BME280;35385;55.668;37.508;2023-03-13T02:17:20;98132.66;;;-5.20;100.00
36600;BME280;35385;55.668;37.508;2023-03-13T02:18:20;98144.66;;;-5.18;100.00
36600;BME280;35385;55.668;37.508;2023-03-13T02:19:41;98140.59;;;-5.23;100.00
36600;BME280;35385;55.668;37.508;2023-03-13T02:20:42;98135.75;;;-5.32;100.00
36600;BME280;35385;55.668;37.508;2023-03-13T02:21:48;98132.53;;;-5.38;100.00
36600;BME280;35385;55.668;37.508;2023-03-13T02:23:02;98138.69;;;-5.40;100.00
36600;BME280;35385;55.668;37.508;2023-03-13T02:24:08;98145.66;;;-5.41;100.00
36600;BME280;35385;55.668;37.508;2023-03-13T02:26:12;98150.75;;;-5.38;100.00
36600;BME280;35385;55.668;37.508;2023-03-13T02:27:13;98149.91;;;-5.38;100.00
36600;BME280;35385;55.668;37.508;2023-03-13T02:28:32;98145.66;;;-5.41;100.00
36600;BME280;35385;55.668;37.508;2023-03-13T02:29:34;98149.97;;;-5.40;100.00
36600;BME280;35385;55.668;37.508;2023-03-13T02:30:34;98153.53;;;-5.42;100.00
36600;BME280;35385;55.668;37.508;2023-03-13T02:31:35;98158.06;;;-5.47;100.00
36600;BME280;35385;55.668;37.508;2023-03-13T02:32:35;98157.38;;;-5.51;100.00
36600;BME280;35385;55.668;37.508;2023-03-13T02:33:37;98163.16;;;-5.44;100.00
36600;BME280;35385;55.668;37.508;2023-03-13T02:34:38;98163.94;;;-5.42;100.00
36600;BME280;35385;55.668;37.508;2023-03-13T02:35:40;98166.81;;;-5.48;100.00
36600;BME280;35385;55.668;37.508;2023-03-13T02:36:42;98169.59;;;-5.53;100.00
36600;BME280;35385;55.668;37.508;2023-03-13T02:37:43;98169.72;;;-5.56;100.00
36600;BME280;35385;55.668;37.508;2023-03-13T02:38:54;98169.97;;;-5.62;100.00
36600;BME280;35385;55.668;37.508;2023-03-13T02:39:55;98177.69;;;-5.60;100.00
36600;BME280;35385;55.668;37.508;2023-03-13T02:40:58;98174.31;;;-5.62;100.00
36600;BME280;35385;55.668;37.508;2023-03-13T02:42:00;98178.44;;;-5.57;100.00
36600;BME280;35385;55.668;37.508;2023-03-13T02:43:04;98187.16;;;-5.58;100.00
36600;BME280;35385;55.668;37.508;2023-03-13T02:44:05;98180.38;;;-5.62;100.00
36600;BME280;35385;55.668;37.508;2023-03-13T02:45:06;98180.50;;;-5.65;100.00
36600;BME280;35385;55.668;37.508;2023-03-13T02:46:08;98182.31;;;-5.67;100.00
36600;BME280;35385;55.668;37.508;2023-03-13T02:47:09;98189.22;;;-5.66;100.00
36600;BME280;35385;55.668;37.508;2023-03-13T02:48:09;98184.13;;;-5.69;100.00
36600;BME280;35385;55.668;37.508;2023-03-13T02:49:31;98192.72;;;-5.67;100.00
36600;BME280;35385;55.668;37.508;2023-03-13T02:50:31;98196.25;;;-5.68;100.00
36600;BME280;35385;55.668;37.508;2023-03-13T02:51:34;98198.84;;;-5.68;100.00
36600;BME280;35385;55.668;37.508;2023-03-13T02:52:38;98194.44;;;-5.66;100.00
36600;BME280;35385;55.668;37.508;2023-03-13T02:53:41;98205.78;;;-5.68;100.00
36600;BME280;35385;55.668;37.508;2023-03-13T02:54:42;98199.88;;;-5.72;100.00
36600;BME280;35385;55.668;37.508;2023-03-13T02:55:43;98199.00;;;-5.73;100.00
36600;BME280;35385;55.668;37.508;2023-03-13T02:56:47;98207.44;;;-5.66;100.00
36600;BME280;35385;55.668;37.508;2023-03-13T02:57:48;98209.81;;;-5.61;100.00
36600;BME280;35385;55.668;37.508;2023-03-13T02:58:48;98212.56;;;-5.64;100.00
36600;BME280;35385;55.668;37.508;2023-03-13T02:59:49;98205.91;;;-5.72;100.00
36600;BME280;35385;55.668;37.508;2023-03-13T03:00:49;98220.78;;;-5.75;100.00
36600;BME280;35385;55.668;37.508;2023-03-13T03:01:50;98208.84;;;-5.79;100.00
36600;BME280;35385;55.668;37.508;2023-03-13T03:02:52;98214.69;;;-5.74;100.00
36600;BME280;35385;55.668;37.508;2023-03-13T03:03:53;98212.34;;;-5.80;100.00
36600;BME280;35385;55.668;37.508;2023-03-13T03:04:53;98209.63;;;-5.77;100.00
36600;BME280;35385;55.668;37.508;2023-03-13T03:05:54;98215.72;;;-5.78;100.00
36600;BME280;35385;55.668;37.508;2023-03-13T03:06:54;98210.53;;;-5.78;100.00
36600;BME280;35385;55.668;37.508;2023-03-13T03:07:55;98212.22;;;-5.77;100.00
36600;BME280;35385;55.668;37.508;2023-03-13T03:08:55;98220.25;;;-5.83;100.00
36600;BME280;35385;55.668;37.508;2023-03-13T03:09:55;98213.31;;;-5.83;100.00
36600;BME280;35385;55.668;37.508;2023-03-13T03:10:56;98215.06;;;-5.83;100.00
36600;BME280;35385;55.668;37.508;2023-03-13T03:11:56;98229.16;;;-5.89;100.00
36600;BME280;35385;55.668;37.508;2023-03-13T03:12:57;98218.81;;;-5.90;100.00
36600;BME280;35385;55.668;37.508;2023-03-13T03:13:57;98230.78;;;-5.86;100.00
36600;BME280;35385;55.668;37.508;2023-03-13T03:14:58;98225.47;;;-5.83;100.00
36600;BME280;35385;55.668;37.508;2023-03-13T03:15:58;98230.50;;;-5.79;100.00
36600;BME280;35385;55.668;37.508;2023-03-13T03:16:58;98231.34;;;-5.78;100.00
36600;BME280;35385;55.668;37.508;2023-03-13T03:17:59;98230.50;;;-5.79;100.00
36600;BME280;35385;55.668;37.508;2023-03-13T03:18:59;98240.91;;;-5.79;100.00
36600;BME280;35385;55.668;37.508;2023-03-13T03:20:00;98244.56;;;-5.84;100.00
36600;BME280;35385;55.668;37.508;2023-03-13T03:21:00;98239.44;;;-5.86;100.00
36600;BME280;35385;55.668;37.508;2023-03-13T03:22:01;98243.66;;;-5.83;100.00
36600;BME280;35385;55.668;37.508;2023-03-13T03:23:01;98244.34;;;-5.78;100.00
36600;BME280;35385;55.668;37.508;2023-03-13T03:24:02;98246.94;;;-5.78;100.00
36600;BME280;35385;55.668;37.508;2023-03-13T03:25:03;98246.28;;;-5.83;100.00
36600;BME280;35385;55.668;37.508;2023-03-13T03:26:05;98248.88;;;-5.83;100.00
36600;BME280;35385;55.668;37.508;2023-03-13T03:27:06;98251.31;;;-5.79;100.00
36600;BME280;35385;55.668;37.508;2023-03-13T03:28:06;98249.59;;;-5.80;100.00
36600;BME280;35385;55.668;37.508;2023-03-13T03:29:06;98248.97;;;-5.86;100.00
36600;BME280;35385;55.668;37.508;2023-03-13T03:30:07;98250.50;;;-5.81;100.00
36600;BME280;35385;55.668;37.508;2023-03-13T03:31:09;98256.78;;;-5.86;100.00
36600;BME280;35385;55.668;37.508;2023-03-13T03:32:09;98252.38;;;-5.84;100.00
36600;BME280;35385;55.668;37.508;2023-03-13T03:33:10;98262.97;;;-5.89;100.00
36600;BME280;35385;55.668;37.508;2023-03-13T03:34:10;98268.31;;;-5.92;100.00
36600;BME280;35385;55.668;37.508;2023-03-13T03:35:11;98255.22;;;-5.90;100.00
36600;BME280;35385;55.668;37.508;2023-03-13T03:36:15;98264.72;;;-5.89;100.00
36600;BME280;35385;55.668;37.508;2023-03-13T03:37:16;98270.63;;;-5.86;100.00
36600;BME280;35385;55.668;37.508;2023-03-13T03:38:16;98266.06;;;-5.79;100.00
36600;BME280;35385;55.668;37.508;2023-03-13T03:39:17;98270.53;;;-5.83;100.00
36600;BME280;35385;55.668;37.508;2023-03-13T03:40:17;98272.38;;;-5.86;100.00
36600;BME280;35385;55.668;37.508;2023-03-13T03:41:19;98265.16;;;-5.78;100.00
36600;BME280;35385;55.668;37.508;2023-03-13T03:42:19;98259.75;;;-5.74;100.00
36600;BME280;35385;55.668;37.508;2023-03-13T03:43:20;98269.44;;;-5.77;100.00
36600;BME280;35385;55.668;37.508;2023-03-13T03:44:21;98266.66;;;-5.73;100.00
36600;BME280;35385;55.668;37.508;2023-03-13T03:45:21;98280.19;;;-5.86;100.00
36600;BME280;35385;55.668;37.508;2023-03-13T03:46:22;98268.81;;;-5.84;100.00
36600;BME280;35385;55.668;37.508;2023-03-13T03:47:22;98273.53;;;-5.92;100.00
36600;BME280;35385;55.668;37.508;2023-03-13T03:48:22;98281.88;;;-5.85;100.00
36600;BME280;35385;55.668;37.508;2023-03-13T03:49:23;98268.72;;;-5.81;100.00
36600;BME280;35385;55.668;37.508;2023-03-13T03:50:23;98274.09;;;-5.85;100.00
36600;BME280;35385;55.668;37.508;2023-03-13T03:51:24;98275.28;;;-5.92;100.00
36600;BME280;35385;55.668;37.508;2023-03-13T03:52:24;98284.88;;;-5.94;100.00
36600;BME280;35385;55.668;37.508;2023-03-13T03:53:25;98273.56;;;-5.93;100.00
36600;BME280;35385;55.668;37.508;2023-03-13T03:54:25;98290.59;;;-5.86;100.00
36600;BME280;35385;55.668;37.508;2023-03-13T03:55:25;98284.38;;;-5.82;100.00
36600;BME280;35385;55.668;37.508;2023-03-13T03:56:26;98282.84;;;-5.88;100.00
36600;BME280;35385;55.668;37.508;2023-03-13T03:57:26;98289.19;;;-5.93;100.00
36600;BME280;35385;55.668;37.508;2023-03-13T03:58:27;98295.09;;;-5.90;100.00
36600;BME280;35385;55.668;37.508;2023-03-13T03:59:27;98296.06;;;-5.92;100.00
36600;BME280;35385;55.668;37.508;2023-03-13T04:00:27;98297.63;;;-5.88;100.00
36600;BME280;35385;55.668;37.508;2023-03-13T04:01:28;98304.38;;;-5.84;100.00
36600;BME280;35385;55.668;37.508;2023-03-13T04:02:28;98290.72;;;-5.89;100.00
36600;BME280;35385;55.668;37.508;2023-03-13T04:03:29;98304.88;;;-5.96;100.00
36600;BME280;35385;55.668;37.508;2023-03-13T04:04:29;98303.41;;;-6.03;100.00
36600;BME280;35385;55.668;37.508;2023-03-13T04:05:30;98301.38;;;-5.95;100.00
36600;BME280;35385;55.668;37.508;2023-03-13T04:06:30;98299.59;;;-5.93;100.00
36600;BME280;35385;55.668;37.508;2023-03-13T04:07:30;98299.69;;;-5.96;100.00
36600;BME280;35385;55.668;37.508;2023-03-13T04:08:31;98297.88;;;-5.94;100.00
36600;BME280;35385;55.668;37.508;2023-03-13T04:09:31;98299.91;;;-6.02;100.00
36600;BME280;35385;55.668;37.508;2023-03-13T04:10:32;98308.56;;;-6.02;100.00
36600;BME280;35385;55.668;37.508;2023-03-13T04:11:32;98318.16;;;-6.04;100.00
36600;BME280;35385;55.668;37.508;2023-03-13T04:12:33;98310.56;;;-6.09;100.00
36600;BME280;35385;55.668;37.508;2023-03-13T04:13:33;98312.25;;;-6.08;100.00
36600;BME280;35385;55.668;37.508;2023-03-13T04:14:33;98320.72;;;-6.02;100.00
36600;BME280;35385;55.668;37.508;2023-03-13T04:15:34;98299.91;;;-6.02;100.00
36600;BME280;35385;55.668;37.508;2023-03-13T04:16:34;98320.44;;;-5.95;100.00
36600;BME280;35385;55.668;37.508;2023-03-13T04:17:35;98324.09;;;-6.00;100.00
36600;BME280;35385;55.668;37.508;2023-03-13T04:18:35;98320.81;;;-6.06;100.00
36600;BME280;35385;55.668;37.508;2023-03-13T04:19:35;98327.97;;;-6.11;100.00
36600;BME280;35385;55.668;37.508;2023-03-13T04:20:36;98327.97;;;-6.11;100.00
36600;BME280;35385;55.668;37.508;2023-03-13T04:21:36;98322.50;;;-6.04;100.00
36600;BME280;35385;55.668;37.508;2023-03-13T04:22:39;98332.06;;;-6.05;100.00
36600;BME280;35385;55.668;37.508;2023-03-13T04:23:39;98327.06;;;-6.10;100.00
36600;BME280;35385;55.668;37.508;2023-03-13T04:24:39;98336.25;;;-6.01;100.00
36600;BME280;35385;55.668;37.508;2023-03-13T04:25:40;98325.06;;;-6.03;100.00
36600;BME280;35385;55.668;37.508;2023-03-13T04:26:40;98327.09;;;-6.11;100.00
36600;BME280;35385;55.668;37.508;2023-03-13T04:27:40;98329.66;;;-6.10;100.00
36600;BME280;35385;55.668;37.508;2023-03-13T04:28:41;98332.00;;;-6.03;100.00
36600;BME280;35385;55.668;37.508;2023-03-13T04:29:41;98333.44;;;-5.95;100.00
36600;BME280;35385;55.668;37.508;2023-03-13T04:30:42;98337.09;;;-6.00;100.00
36600;BME280;35385;55.668;37.508;2023-03-13T04:31:42;98335.69;;;-6.09;100.00
36600;BME280;35385;55.668;37.508;2023-03-13T04:32:43;98342.34;;;-6.02;100.00
36600;BME280;35385;55.668;37.508;2023-03-13T04:33:43;98337.78;;;-5.95;100.00
36600;BME280;35385;55.668;37.508;2023-03-13T04:34:43;98346.91;;;-6.07;100.00
36600;BME280;35385;55.668;37.508;2023-03-13T04:35:44;98352.84;;;-6.05;100.00
36600;BME280;35385;55.668;37.508;2023-03-13T04:36:44;98353.72;;;-6.04;100.00
36600;BME280;35385;55.668;37.508;2023-03-13T04:37:45;98360.59;;;-6.03;100.00
36600;BME280;35385;55.668;37.508;2023-03-13T04:38:45;98356.31;;;-6.04;100.00
36600;BME280;35385;55.668;37.508;2023-03-13T04:39:45;98359.75;;;-6.04;100.00
36600;BME280;35385;55.668;37.508;2023-03-13T04:40:46;98355.34;;;-6.02;100.00
36600;BME280;35385;55.668;37.508;2023-03-13T04:41:47;98361.34;;;-6.00;100.00
36600;BME280;35385;55.668;37.508;2023-03-13T04:42:48;98317.88;;;-6.20;100.00
36600;BME280;35385;55.668;37.508;2023-03-13T04:43:48;98373.59;;;-5.80;100.00
36600;BME280;35385;55.668;37.508;2023-03-13T04:44:49;98382.84;;;-5.73;100.00
36600;BME280;35385;55.668;37.508;2023-03-13T04:45:50;98381.84;;;-5.69;100.00
36600;BME280;35385;55.668;37.508;2023-03-13T04:46:53;98386.94;;;-5.66;100.00
36600;BME280;35385;55.668;37.508;2023-03-13T04:47:53;98383.69;;;-5.73;100.00
36600;BME280;35385;55.668;37.508;2023-03-13T04:48:54;98382.75;;;-5.70;100.00
36600;BME280;35385;55.668;37.508;2023-03-13T04:49:54;98396.59;;;-5.70;100.00
36600;BME280;35385;55.668;37.508;2023-03-13T04:50:55;98387.00;;;-5.67;100.00
36600;BME280;35385;55.668;37.508;2023-03-13T04:51:55;98395.84;;;-5.73;100.00
36600;BME280;35385;55.668;37.508;2023-03-13T04:52:56;98394.06;;;-5.71;100.00
36600;BME280;35385;55.668;37.508;2023-03-13T04:53:56;98388.69;;;-5.66;100.00
36600;BME280;35385;55.668;37.508;2023-03-13T04:54:56;98398.78;;;-5.59;100.00
36600;BME280;35385;55.668;37.508;2023-03-13T04:55:57;98395.13;;;-5.77;100.00
36600;BME280;35385;55.668;37.508;2023-03-13T04:56:57;98348.19;;;-5.95;100.00
36600;BME280;35385;55.668;37.508;2023-03-13T04:57:58;98394.75;;;-5.66;100.00
36600;BME280;35385;55.668;37.508;2023-03-13T04:58:58;98403.19;;;-5.61;100.00
36600;BME280;35385;55.668;37.508;2023-03-13T04:59:58;98402.28;;;-5.60;100.00
36600;BME280;35385;55.668;37.508;2023-03-13T05:02:26;98390.75;;;-5.53;100.00
36600;BME280;35385;55.668;37.508;2023-03-13T05:03:26;98397.16;;;-5.61;100.00
36600;BME280;35385;55.668;37.508;2023-03-13T05:04:26;98401.41;;;-5.59;100.00
36600;BME280;35385;55.668;37.508;2023-03-13T05:05:27;98405.03;;;-5.63;100.00
36600;BME280;35385;55.668;37.508;2023-03-13T05:06:27;98401.25;;;-5.78;100.00
36600;BME280;35385;55.668;37.508;2023-03-13T05:07:28;98410.84;;;-5.80;100.00
36600;BME280;35385;55.668;37.508;2023-03-13T05:08:28;98420.81;;;-5.67;100.00
36600;BME280;35385;55.668;37.508;2023-03-13T05:09:29;98405.81;;;-5.61;100.00
36600;BME280;35385;55.668;37.508;2023-03-13T05:10:29;98414.13;;;-5.51;100.00
36600;BME280;35385;55.668;37.508;2023-03-13T05:11:29;98412.69;;;-5.60;100.00
36600;BME280;35385;55.668;37.508;2023-03-13T05:12:30;98414.66;;;-5.65;100.00
36600;BME280;35385;55.668;37.508;2023-03-13T05:13:30;98418.22;;;-5.67;100.00
36600;BME280;35385;55.668;37.508;2023-03-13T05:14:31;98423.13;;;-5.60;100.00
36600;BME280;35385;55.668;37.508;2023-03-13T05:15:31;98429.63;;;-5.48;100.00
36600;BME280;35385;55.668;37.508;2023-03-13T05:16:31;98428.00;;;-5.51;100.00
36600;BME280;35385;55.668;37.508;2023-03-13T05:17:32;98424.50;;;-5.50;100.00
36600;BME280;35385;55.668;37.508;2023-03-13T05:18:32;98422.44;;;-5.42;100.00
36600;BME280;35385;55.668;37.508;2023-03-13T05:19:33;98429.38;;;-5.42;100.00
36600;BME280;35385;55.668;37.508;2023-03-13T05:20:34;98422.44;;;-5.42;100.00
36600;BME280;35385;55.668;37.508;2023-03-13T05:21:34;98441.09;;;-5.30;100.00
36600;BME280;35385;55.668;37.508;2023-03-13T05:22:36;98437.34;;;-5.23;100.00